Lake Odessa, Michigan
Current Conditions -  °F | °C
As of 4:34 AM on Sunday 26 Oct 2014 (Local Time) from KY70 Reporting Station
Clear Clear  
Wind Chill: 43°   Ceiling: Unl
Heat Index: 47°   Visibility: 10mi
Dew Point: 34°   Wind: 9mph
Humidity: 59%   Direction: 290°WNW
Pressure: 29.89"   Gusts: NA
Location:  42.78°N, 85.14°W
Report Text: KY70 260834Z AUTO 29008KT 10SM CLR 09/01 A2989 RMK AO2 T00850010
Loading
Personal Weather Stations






























Interactive Weather Map
Tropical Storm Tracking
New forecast layout! Learn more

10-Day Weather Forecast

Advertisements
Track Severe Weather on mobile